FALL weather

Lydenburg Airport
Lydenburg, Mpumalanga, South Africa

Public forecast

Using degrees Celsius for public forecast. Weather courtesy of forecast.io.

Closest aviation weather report (METAR) to Lydenburg Airport

Closest report is Kruger Mpumalanga International Airport, 41.1 nm (76.2 km) ESE. Retrieved 2019/12/16 12:00 UTC (38 minutes ago):

FAKN 161200Z 09004KT 9999 SCT015 OVC020 19/13 Q1023 NOSIG

Closest aviation forecast (TAF) to Lydenburg Airport

Forecast is more than 12 hours old.

Closest forecast is Kruger Mpumalanga International Airport, 41.1 nm (76.2 km) ESE. Retrieved 2017/06/05 04:55 UTC (3 years ago):

TAF FAKN 050300Z 0504/0515 25006KT CAVOK BECMG 0511/0513 13005KT SCT030 BECMG 0513/0515 07005KT TX22/0513ZTN08/0504Z